Nearby METAR Reports

 

KSJC - San Jose, California, USA
Distance from station: NE 14km
Updated: 2018-04-25 10:18
Haze, Partly cloudy
Haze, Partly cloudy
 Wind from E
Wind: E 9 km/h
Temperature: 16°C
Dew Point: 11°C
Humidity: 72%
Barometer: 1018.6 hPa
Summary: Haze
Clouds: Partly cloudy
Visibility: 6 km
Cloud details: Few Clouds 30 m
Partly cloudy 305 m
2018/04/25 17:18 KSJC 251718Z 08005KT 4SM HZ FEW001 SCT010 16/11 A3008 RMK AO2 T01560106
KNUQ - Moffett Nas/Mtn, California, USA
Distance from station: N 14km
Updated: 2018-04-25 10:03
Partly cloudy
Partly cloudy
 Wind from NNW
Wind: NNW 6 km/h
Temperature: 15°C
Dew Point: 11°C
Humidity: 77%
Barometer: 1018.6 hPa
Clouds: Partly cloudy
Visibility: 14 km
Cloud details: Partly cloudy 579 m
2018/04/25 17:03 KNUQ 251703Z 34003KT 9SM SCT019 15/11 A3008 RMK AO2 T01500106
 
KPAO - Palo Alto, California, USA
Distance from station: NNW 23km
Updated: 2018-04-25 10:47
Few Clouds
Few Clouds
 Wind from N
Wind: N 9 km/h
Barometer: 1019 hPa
Clouds: Few Clouds
Visibility: 16 km
Cloud details: Few Clouds 457 m
2018/04/25 17:47 KPAO 251747Z 35005KT 10SM FEW015 A3009
KRHV - San Jose/Reid, California, USA
Distance from station: ENE 19km
Updated: 2018-04-25 09:50
Mist, Mostly cloudy
Mist, Mostly cloudy
 Wind from varies
Wind: varies 9 km/h
Temperature: 14°C
Dew Point: 10°C
Humidity: 77%
Barometer: 1017.9 hPa
Summary: Mist
Clouds: Mostly cloudy
Visibility: 10 km
Cloud details: Partly cloudy 335 m
Mostly cloudy 457 m
2018/04/25 16:50 KRHV 251650Z VRB05KT 6SM BR SCT011 BKN015 14/10 A3006
 
KOAK - Oakland, California, USA
Distance from station: NNW 50km
Updated: 2018-04-25 09:53
Overcast
Overcast
 Wind from NW
Wind: NW 7 km/h
Temperature: 12°C
Dew Point: 9°C
Humidity: 82%
Barometer: 1019 hPa
Clouds: Overcast
Visibility: 16 km
Cloud details: Few Clouds 305 m
Overcast 427 m
2018/04/25 16:53 KOAK 251653Z 32004KT 10SM FEW010 OVC014 12/09 A3009 RMK AO2 SLP188 T01220089
KSQL - San Carlos Airpo, California, USA
Distance from station: NW 34km
Updated: 2018-04-25 10:47
Partly cloudy
Partly cloudy
 Wind from varies
Wind: varies 9 km/h
Temperature: 15°C
Dew Point: 10°C
Humidity: 72%
Barometer: 1019 hPa
Clouds: Partly cloudy
Visibility: 16 km
Cloud details: Partly cloudy 579 m
2018/04/25 17:47 KSQL 251747Z VRB005KT 10SM SCT019 15/10 A3009
 
KSFO - San Francisco, California, USA
Distance from station: NW 49km
Updated: 2018-04-25 10:29
Few Clouds
Few Clouds
 Wind from WNW
Wind: WNW 15 km/h
Temperature: 16°C
Dew Point: 8°C
Humidity: 59%
Barometer: 1018.6 hPa
Clouds: Few Clouds
Visibility: 16 km
Cloud details: Few Clouds 549 m
2018/04/25 17:29 KSFO 251729Z 30008KT 270V350 10SM FEW018 16/08 A3008 RMK AO2 T01560083
KE16 - San Martin, California, USA
Distance from station: ESE 43km
Updated: 2018-04-25 10:35
Overcast
Overcast
 Wind from S
Wind: S 7 km/h
Temperature: 12°C
Dew Point: 9°C
Humidity: 82%
Barometer: 1019.3 hPa
Clouds: Overcast
Visibility: 16 km
Cloud details: Overcast 244 m
2018/04/25 17:35 KE16 251735Z AUTO 19004KT 10SM OVC008 12/09 A3010 RMK AO2
 
KWVI - Watsonville, California, USA
Distance from station: SSE 44km
Updated: 2018-04-25 09:53
Mist, Overcast
Mist, Overcast
 Wind from calm
Wind: Calm
Temperature: 11°C
Dew Point: 10°C
Humidity: 94%
Barometer: 1019 hPa
Summary: Mist
Clouds: Overcast
Visibility: 10 km
Cloud details: Overcast 244 m
2018/04/25 16:53 KWVI 251653Z AUTO 00000KT 6SM BR OVC008 11/10 A3009 RMK AO2 SLP189 T01110100
KHAF - Half Moon Bay, California, USA
Distance from station: WNW 50km
Updated: 2018-04-25 10:40
Overcast
Overcast
 Wind from WSW
Wind: WSW 9 km/h
Temperature: 12°C
Dew Point: 9°C
Humidity: 82%
Barometer: 1020 hPa
Clouds: Overcast
Visibility: 11 km
Cloud details: Overcast 427 m
2018/04/25 17:40 KHAF 251740Z AUTO 24005KT 7SM OVC014 12/09 A3012 RMK AO2
 
KHWD - Hayward, California, USA
Distance from station: N 44km
Updated: 2018-04-25 10:30
Partly cloudy
Partly cloudy
 Wind from varies
Wind: varies 7 km/h
Temperature: 14°C
Dew Point: 8°C
Humidity: 67%
Barometer: 1019 hPa
Clouds: Partly cloudy
Visibility: 16 km
Cloud details: Partly cloudy 518 m
2018/04/25 17:30 KHWD 251730Z VRB04KT 10SM SCT017 14/08 A3009 RMK AO2 T01440078
KLVK - Livermore, California, USA
Distance from station: NNE 51km
Updated: 2018-04-25 09:53
Few Clouds
Few Clouds
 Wind from varies
Wind: varies 6 km/h
Temperature: 13°C
Dew Point: 11°C
Humidity: 88%
Barometer: 1017.9 hPa
Clouds: Few Clouds
Visibility: 11 km
Cloud details: Few Clouds 335 m
2018/04/25 16:53 KLVK 251653Z VRB03KT 7SM FEW011 13/11 A3006 RMK AO2 SLP178 T01280106